sensor_id;sensor_type;location;lat;lon;timestamp;temperature;humidity
29855;DHT22;16733;48.738;9.106;2022-10-16T00:01:46;15.90;99.90
29855;DHT22;16733;48.738;9.106;2022-10-16T00:04:12;15.90;99.90
29855;DHT22;16733;48.738;9.106;2022-10-16T00:06:38;15.90;99.90
29855;DHT22;16733;48.738;9.106;2022-10-16T00:09:04;15.90;99.90
29855;DHT22;16733;48.738;9.106;2022-10-16T00:11:33;15.90;99.90
29855;DHT22;16733;48.738;9.106;2022-10-16T00:14:03;15.90;99.90
29855;DHT22;16733;48.738;9.106;2022-10-16T00:19:51;15.80;99.90
29855;DHT22;16733;48.738;9.106;2022-10-16T00:22:16;15.70;99.90
29855;DHT22;16733;48.738;9.106;2022-10-16T00:28:04;15.70;99.90
29855;DHT22;16733;48.738;9.106;2022-10-16T00:30:30;15.60;99.90
29855;DHT22;16733;48.738;9.106;2022-10-16T00:32:56;15.50;99.90
29855;DHT22;16733;48.738;9.106;2022-10-16T00:35:21;15.50;99.90
29855;DHT22;16733;48.738;9.106;2022-10-16T00:37:47;15.50;99.90
29855;DHT22;16733;48.738;9.106;2022-10-16T00:40:13;15.50;99.90
29855;DHT22;16733;48.738;9.106;2022-10-16T00:42:38;15.50;99.90
29855;DHT22;16733;48.738;9.106;2022-10-16T00:45:05;15.60;99.90
29855;DHT22;16733;48.738;9.106;2022-10-16T00:50:53;15.60;99.90
29855;DHT22;16733;48.738;9.106;2022-10-16T00:53:19;15.60;99.90
29855;DHT22;16733;48.738;9.106;2022-10-16T00:55:45;15.60;99.90
29855;DHT22;16733;48.738;9.106;2022-10-16T01:01:33;15.60;99.90
29855;DHT22;16733;48.738;9.106;2022-10-16T01:03:58;15.60;99.90
29855;DHT22;16733;48.738;9.106;2022-10-16T01:06:49;15.60;99.90
29855;DHT22;16733;48.738;9.106;2022-10-16T01:12:51;15.60;99.90
29855;DHT22;16733;48.738;9.106;2022-10-16T01:15:26;15.60;99.90
29855;DHT22;16733;48.738;9.106;2022-10-16T01:20:30;15.50;99.90
29855;DHT22;16733;48.738;9.106;2022-10-16T01:26:20;15.50;99.90
29855;DHT22;16733;48.738;9.106;2022-10-16T01:29:03;15.40;99.90
29855;DHT22;16733;48.738;9.106;2022-10-16T01:31:34;15.40;99.90
29855;DHT22;16733;48.738;9.106;2022-10-16T01:34:15;15.30;99.90
29855;DHT22;16733;48.738;9.106;2022-10-16T01:36:47;15.30;99.90
29855;DHT22;16733;48.738;9.106;2022-10-16T01:39:15;15.30;99.90
29855;DHT22;16733;48.738;9.106;2022-10-16T01:41:49;15.30;99.90
29855;DHT22;16733;48.738;9.106;2022-10-16T01:47:39;15.30;99.90
29855;DHT22;16733;48.738;9.106;2022-10-16T01:50:07;15.40;99.90
29855;DHT22;16733;48.738;9.106;2022-10-16T01:52:37;15.40;99.90
29855;DHT22;16733;48.738;9.106;2022-10-16T01:55:06;15.40;99.90
29855;DHT22;16733;48.738;9.106;2022-10-16T01:57:35;15.40;99.90
29855;DHT22;16733;48.738;9.106;2022-10-16T02:03:24;15.40;99.90
29855;DHT22;16733;48.738;9.106;2022-10-16T02:05:55;15.40;99.90
29855;DHT22;16733;48.738;9.106;2022-10-16T02:08:23;15.40;99.90
29855;DHT22;16733;48.738;9.106;2022-10-16T02:14:11;15.40;99.90
29855;DHT22;16733;48.738;9.106;2022-10-16T02:16:54;15.50;99.90
29855;DHT22;16733;48.738;9.106;2022-10-16T02:22:48;15.50;99.90
29855;DHT22;16733;48.738;9.106;2022-10-16T02:25:30;15.50;99.90
29855;DHT22;16733;48.738;9.106;2022-10-16T02:28:27;15.50;99.90
29855;DHT22;16733;48.738;9.106;2022-10-16T02:31:01;15.50;99.90
29855;DHT22;16733;48.738;9.106;2022-10-16T02:36:51;15.50;99.90
29855;DHT22;16733;48.738;9.106;2022-10-16T02:39:17;15.40;99.90
29855;DHT22;16733;48.738;9.106;2022-10-16T02:41:43;15.40;99.90
29855;DHT22;16733;48.738;9.106;2022-10-16T02:44:09;15.40;99.90
29855;DHT22;16733;48.738;9.106;2022-10-16T02:46:34;15.40;99.90
29855;DHT22;16733;48.738;9.106;2022-10-16T02:49:00;15.40;99.90
29855;DHT22;16733;48.738;9.106;2022-10-16T02:51:25;15.40;99.90
29855;DHT22;16733;48.738;9.106;2022-10-16T02:53:51;15.40;99.90
29855;DHT22;16733;48.738;9.106;2022-10-16T02:59:39;15.40;99.90
29855;DHT22;16733;48.738;9.106;2022-10-16T03:02:04;15.50;99.90
29855;DHT22;16733;48.738;9.106;2022-10-16T03:04:30;15.40;99.90
29855;DHT22;16733;48.738;9.106;2022-10-16T03:06:56;15.40;99.90
29855;DHT22;16733;48.738;9.106;2022-10-16T03:09:21;15.40;99.90
29855;DHT22;16733;48.738;9.106;2022-10-16T03:11:47;15.40;99.90
29855;DHT22;16733;48.738;9.106;2022-10-16T03:14:12;15.40;99.90
29855;DHT22;16733;48.738;9.106;2022-10-16T03:16:38;15.40;99.90
29855;DHT22;16733;48.738;9.106;2022-10-16T03:19:04;15.40;99.90
29855;DHT22;16733;48.738;9.106;2022-10-16T03:21:29;15.40;99.90
29855;DHT22;16733;48.738;9.106;2022-10-16T03:27:17;15.40;99.90
29855;DHT22;16733;48.738;9.106;2022-10-16T03:29:42;15.50;99.90
29855;DHT22;16733;48.738;9.106;2022-10-16T03:32:08;15.40;99.90
29855;DHT22;16733;48.738;9.106;2022-10-16T03:34:33;15.40;99.90
29855;DHT22;16733;48.738;9.106;2022-10-16T03:36:59;15.50;99.90
29855;DHT22;16733;48.738;9.106;2022-10-16T03:39:25;15.50;99.90
29855;DHT22;16733;48.738;9.106;2022-10-16T03:41:50;15.50;99.90
29855;DHT22;16733;48.738;9.106;2022-10-16T03:47:37;15.40;99.90
29855;DHT22;16733;48.738;9.106;2022-10-16T03:50:04;15.40;99.90
29855;DHT22;16733;48.738;9.106;2022-10-16T03:52:30;15.40;99.90
29855;DHT22;16733;48.738;9.106;2022-10-16T03:54:55;15.40;99.90
29855;DHT22;16733;48.738;9.106;2022-10-16T04:00:44;15.30;99.90
29855;DHT22;16733;48.738;9.106;2022-10-16T04:03:10;15.20;99.90
29855;DHT22;16733;48.738;9.106;2022-10-16T04:08:59;15.30;99.90
29855;DHT22;16733;48.738;9.106;2022-10-16T04:14:46;15.30;99.90
29855;DHT22;16733;48.738;9.106;2022-10-16T04:17:12;15.30;99.90
29855;DHT22;16733;48.738;9.106;2022-10-16T04:19:37;15.30;99.90
29855;DHT22;16733;48.738;9.106;2022-10-16T04:25:25;15.30;99.90
29855;DHT22;16733;48.738;9.106;2022-10-16T04:27:53;15.40;99.90
29855;DHT22;16733;48.738;9.106;2022-10-16T04:30:18;15.40;99.90
29855;DHT22;16733;48.738;9.106;2022-10-16T04:32:48;15.40;99.90
29855;DHT22;16733;48.738;9.106;2022-10-16T04:35:14;15.40;99.90
29855;DHT22;16733;48.738;9.106;2022-10-16T04:37:40;15.50;99.90
29855;DHT22;16733;48.738;9.106;2022-10-16T04:40:06;15.50;99.90
29855;DHT22;16733;48.738;9.106;2022-10-16T04:46:01;15.50;99.90
29855;DHT22;16733;48.738;9.106;2022-10-16T04:48:27;15.60;99.90
29855;DHT22;16733;48.738;9.106;2022-10-16T05:00:59;15.60;99.90
29855;DHT22;16733;48.738;9.106;2022-10-16T05:06:47;15.70;99.90
29855;DHT22;16733;48.738;9.106;2022-10-16T05:09:13;15.70;99.90
29855;DHT22;16733;48.738;9.106;2022-10-16T05:11:38;15.70;99.90
29855;DHT22;16733;48.738;9.106;2022-10-16T05:14:04;15.70;99.90
29855;DHT22;16733;48.738;9.106;2022-10-16T05:20:05;15.70;99.90
29855;DHT22;16733;48.738;9.106;2022-10-16T05:29:14;15.70;99.90
29855;DHT22;16733;48.738;9.106;2022-10-16T05:31:40;15.70;99.90
29855;DHT22;16733;48.738;9.106;2022-10-16T05:34:05;15.60;99.90
29855;DHT22;16733;48.738;9.106;2022-10-16T05:36:31;15.60;99.90
29855;DHT22;16733;48.738;9.106;2022-10-16T05:38:57;15.60;99.90
29855;DHT22;16733;48.738;9.106;2022-10-16T05:44:44;15.40;99.90
29855;DHT22;16733;48.738;9.106;2022-10-16T05:47:12;15.40;99.90
29855;DHT22;16733;48.738;9.106;2022-10-16T05:49:37;15.40;99.90
29855;DHT22;16733;48.738;9.106;2022-10-16T05:52:03;15.40;99.90
29855;DHT22;16733;48.738;9.106;2022-10-16T05:54:29;15.40;99.90
29855;DHT22;16733;48.738;9.106;2022-10-16T05:56:54;15.30;99.90
29855;DHT22;16733;48.738;9.106;2022-10-16T05:59:20;15.30;99.90
29855;DHT22;16733;48.738;9.106;2022-10-16T06:01:45;15.40;99.90
29855;DHT22;16733;48.738;9.106;2022-10-16T06:07:36;15.30;99.90
29855;DHT22;16733;48.738;9.106;2022-10-16T06:10:03;15.40;99.90
29855;DHT22;16733;48.738;9.106;2022-10-16T06:12:29;15.30;99.90
29855;DHT22;16733;48.738;9.106;2022-10-16T06:14:55;15.40;99.90
29855;DHT22;16733;48.738;9.106;2022-10-16T06:17:20;15.40;99.90
29855;DHT22;16733;48.738;9.106;2022-10-16T06:19:46;15.40;99.90
29855;DHT22;16733;48.738;9.106;2022-10-16T06:22:12;15.50;99.90
29855;DHT22;16733;48.738;9.106;2022-10-16T06:24:37;15.50;99.90
29855;DHT22;16733;48.738;9.106;2022-10-16T06:27:04;15.60;99.90
29855;DHT22;16733;48.738;9.106;2022-10-16T06:29:30;15.60;99.90
29855;DHT22;16733;48.738;9.106;2022-10-16T06:31:55;15.60;99.90
29855;DHT22;16733;48.738;9.106;2022-10-16T06:41:06;15.80;99.90
29855;DHT22;16733;48.738;9.106;2022-10-16T06:43:33;15.90;99.90
29855;DHT22;16733;48.738;9.106;2022-10-16T06:49:22;16.00;99.90
29855;DHT22;16733;48.738;9.106;2022-10-16T06:51:48;16.00;99.90
29855;DHT22;16733;48.738;9.106;2022-10-16T06:57:36;16.10;99.90
29855;DHT22;16733;48.738;9.106;2022-10-16T07:00:03;16.10;99.90
29855;DHT22;16733;48.738;9.106;2022-10-16T07:02:29;16.20;99.90
29855;DHT22;16733;48.738;9.106;2022-10-16T07:04:54;16.20;99.90
29855;DHT22;16733;48.738;9.106;2022-10-16T07:07:21;16.20;99.90
29855;DHT22;16733;48.738;9.106;2022-10-16T07:13:08;16.30;99.90
29855;DHT22;16733;48.738;9.106;2022-10-16T07:15:34;16.40;99.90
29855;DHT22;16733;48.738;9.106;2022-10-16T07:17:59;16.40;99.90
29855;DHT22;16733;48.738;9.106;2022-10-16T07:20:25;16.40;99.90
29855;DHT22;16733;48.738;9.106;2022-10-16T07:22:51;16.40;99.90
29855;DHT22;16733;48.738;9.106;2022-10-16T07:25:17;16.50;99.90
29855;DHT22;16733;48.738;9.106;2022-10-16T07:27:42;16.50;99.90
29855;DHT22;16733;48.738;9.106;2022-10-16T07:30:08;16.50;99.90
29855;DHT22;16733;48.738;9.106;2022-10-16T07:32:34;16.50;99.90
29855;DHT22;16733;48.738;9.106;2022-10-16T07:34:59;16.50;99.90
29855;DHT22;16733;48.738;9.106;2022-10-16T07:40:48;16.50;99.90
29855;DHT22;16733;48.738;9.106;2022-10-16T07:43:14;16.50;99.90
29855;DHT22;16733;48.738;9.106;2022-10-16T07:49:02;16.60;99.90
29855;DHT22;16733;48.738;9.106;2022-10-16T07:51:28;16.60;99.90
29855;DHT22;16733;48.738;9.106;2022-10-16T07:53:54;16.60;99.90
29855;DHT22;16733;48.738;9.106;2022-10-16T07:59:41;16.70;99.90
29855;DHT22;16733;48.738;9.106;2022-10-16T08:05:31;16.80;99.90
29855;DHT22;16733;48.738;9.106;2022-10-16T08:07:57;16.80;99.90
29855;DHT22;16733;48.738;9.106;2022-10-16T08:10:25;16.90;99.90
29855;DHT22;16733;48.738;9.106;2022-10-16T08:13:06;16.90;99.90
29855;DHT22;16733;48.738;9.106;2022-10-16T08:15:32;17.00;99.90
29855;DHT22;16733;48.738;9.106;2022-10-16T08:18:02;17.10;99.90
29855;DHT22;16733;48.738;9.106;2022-10-16T08:20:29;17.10;99.90
29855;DHT22;16733;48.738;9.106;2022-10-16T08:22:55;17.20;99.90
29855;DHT22;16733;48.738;9.106;2022-10-16T08:28:56;17.40;99.90
29855;DHT22;16733;48.738;9.106;2022-10-16T08:31:22;17.50;99.90
29855;DHT22;16733;48.738;9.106;2022-10-16T08:37:10;17.70;99.90
29855;DHT22;16733;48.738;9.106;2022-10-16T08:51:51;17.90;99.90
29855;DHT22;16733;48.738;9.106;2022-10-16T08:57:39;17.90;99.90
29855;DHT22;16733;48.738;9.106;2022-10-16T09:00:14;17.90;99.90
29855;DHT22;16733;48.738;9.106;2022-10-16T09:08:15;18.10;99.90
29855;DHT22;16733;48.738;9.106;2022-10-16T09:16:56;18.30;99.90
29855;DHT22;16733;48.738;9.106;2022-10-16T09:22:46;18.50;99.90
29855;DHT22;16733;48.738;9.106;2022-10-16T09:25:17;18.60;99.90
29855;DHT22;16733;48.738;9.106;2022-10-16T09:27:47;18.80;99.90
29855;DHT22;16733;48.738;9.106;2022-10-16T09:33:38;18.90;99.90
29855;DHT22;16733;48.738;9.106;2022-10-16T09:36:05;19.00;99.90
29855;DHT22;16733;48.738;9.106;2022-10-16T09:38:35;19.10;99.90
29855;DHT22;16733;48.738;9.106;2022-10-16T09:41:16;19.20;99.90
29855;DHT22;16733;48.738;9.106;2022-10-16T09:43:53;19.30;99.90
29855;DHT22;16733;48.738;9.106;2022-10-16T09:49:52;19.30;99.90
29855;DHT22;16733;48.738;9.106;2022-10-16T09:52:19;19.40;99.90
29855;DHT22;16733;48.738;9.106;2022-10-16T09:58:13;19.70;99.90
29855;DHT22;16733;48.738;9.106;2022-10-16T10:00:41;19.80;99.90
29855;DHT22;16733;48.738;9.106;2022-10-16T10:03:11;19.90;99.90
29855;DHT22;16733;48.738;9.106;2022-10-16T10:16:52;20.40;99.90
29855;DHT22;16733;48.738;9.106;2022-10-16T10:19:23;20.40;99.90
29855;DHT22;16733;48.738;9.106;2022-10-16T10:25:19;20.60;99.90
29855;DHT22;16733;48.738;9.106;2022-10-16T10:31:15;20.70;99.90
29855;DHT22;16733;48.738;9.106;2022-10-16T10:40:26;20.90;99.90
29855;DHT22;16733;48.738;9.106;2022-10-16T10:43:10;21.00;99.90
29855;DHT22;16733;48.738;9.106;2022-10-16T10:45:47;21.00;99.90
29855;DHT22;16733;48.738;9.106;2022-10-16T11:06:16;22.20;99.90
29855;DHT22;16733;48.738;9.106;2022-10-16T11:11:15;22.60;99.90
29855;DHT22;16733;48.738;9.106;2022-10-16T11:16:59;22.70;99.90
29855;DHT22;16733;48.738;9.106;2022-10-16T11:24:52;22.40;99.90
29855;DHT22;16733;48.738;9.106;2022-10-16T11:28:00;22.40;99.90
29855;DHT22;16733;48.738;9.106;2022-10-16T11:39:24;22.70;99.90
29855;DHT22;16733;48.738;9.106;2022-10-16T11:47:33;23.00;99.90
29855;DHT22;16733;48.738;9.106;2022-10-16T11:50:17;23.10;99.90
29855;DHT22;16733;48.738;9.106;2022-10-16T11:55:24;23.50;99.90
29855;DHT22;16733;48.738;9.106;2022-10-16T11:57:57;23.60;99.90
29855;DHT22;16733;48.738;9.106;2022-10-16T12:08:43;24.00;99.90
29855;DHT22;16733;48.738;9.106;2022-10-16T12:11:30;24.10;99.90
29855;DHT22;16733;48.738;9.106;2022-10-16T12:17:34;24.20;99.90
29855;DHT22;16733;48.738;9.106;2022-10-16T12:26:01;24.60;99.90
29855;DHT22;16733;48.738;9.106;2022-10-16T12:28:29;24.70;99.90
29855;DHT22;16733;48.738;9.106;2022-10-16T12:34:32;24.60;99.90
29855;DHT22;16733;48.738;9.106;2022-10-16T12:42:50;23.90;99.90
29855;DHT22;16733;48.738;9.106;2022-10-16T12:48:40;23.70;99.90
29855;DHT22;16733;48.738;9.106;2022-10-16T12:54:24;23.50;99.90
29855;DHT22;16733;48.738;9.106;2022-10-16T13:28:34;22.80;99.90
29855;DHT22;16733;48.738;9.106;2022-10-16T13:34:22;22.80;99.90
29855;DHT22;16733;48.738;9.106;2022-10-16T13:36:51;22.80;99.90
29855;DHT22;16733;48.738;9.106;2022-10-16T13:39:24;22.80;99.90
29855;DHT22;16733;48.738;9.106;2022-10-16T13:42:11;22.80;99.90
29855;DHT22;16733;48.738;9.106;2022-10-16T13:48:09;22.80;99.90
29855;DHT22;16733;48.738;9.106;2022-10-16T13:50:37;22.80;99.90
29855;DHT22;16733;48.738;9.106;2022-10-16T13:53:09;22.80;99.90
29855;DHT22;16733;48.738;9.106;2022-10-16T13:55:38;22.80;99.90
29855;DHT22;16733;48.738;9.106;2022-10-16T14:01:40;22.80;99.90
29855;DHT22;16733;48.738;9.106;2022-10-16T14:07:34;22.70;99.90
29855;DHT22;16733;48.738;9.106;2022-10-16T14:13:29;22.60;99.90
29855;DHT22;16733;48.738;9.106;2022-10-16T14:15:55;22.50;99.90
29855;DHT22;16733;48.738;9.106;2022-10-16T14:21:46;22.40;99.90
29855;DHT22;16733;48.738;9.106;2022-10-16T14:24:12;22.40;99.90
29855;DHT22;16733;48.738;9.106;2022-10-16T14:30:17;22.40;99.90
29855;DHT22;16733;48.738;9.106;2022-10-16T14:32:57;22.40;99.90
29855;DHT22;16733;48.738;9.106;2022-10-16T14:35:37;22.40;99.90
29855;DHT22;16733;48.738;9.106;2022-10-16T14:38:04;22.40;99.90
29855;DHT22;16733;48.738;9.106;2022-10-16T14:40:33;22.40;99.90
29855;DHT22;16733;48.738;9.106;2022-10-16T14:43:00;22.30;99.90
29855;DHT22;16733;48.738;9.106;2022-10-16T14:48:50;22.20;99.90
29855;DHT22;16733;48.738;9.106;2022-10-16T14:51:19;22.10;99.90
29855;DHT22;16733;48.738;9.106;2022-10-16T14:53:46;22.10;99.90
29855;DHT22;16733;48.738;9.106;2022-10-16T14:56:30;22.10;99.90
29855;DHT22;16733;48.738;9.106;2022-10-16T14:58:58;22.10;99.90
29855;DHT22;16733;48.738;9.106;2022-10-16T15:01:24;22.10;99.90
29855;DHT22;16733;48.738;9.106;2022-10-16T15:03:49;22.10;99.90
29855;DHT22;16733;48.738;9.106;2022-10-16T15:06:17;22.10;99.90
29855;DHT22;16733;48.738;9.106;2022-10-16T15:08:43;22.00;99.90
29855;DHT22;16733;48.738;9.106;2022-10-16T15:11:18;22.00;99.90
29855;DHT22;16733;48.738;9.106;2022-10-16T15:13:45;22.00;99.90
29855;DHT22;16733;48.738;9.106;2022-10-16T15:16:14;22.00;99.90
29855;DHT22;16733;48.738;9.106;2022-10-16T15:18:40;22.00;99.90
29855;DHT22;16733;48.738;9.106;2022-10-16T15:21:06;21.90;99.90
29855;DHT22;16733;48.738;9.106;2022-10-16T15:23:32;21.90;99.90
29855;DHT22;16733;48.738;9.106;2022-10-16T15:25:57;21.90;99.90
29855;DHT22;16733;48.738;9.106;2022-10-16T15:28:24;21.90;99.90
29855;DHT22;16733;48.738;9.106;2022-10-16T15:31:05;21.80;99.90
29855;DHT22;16733;48.738;9.106;2022-10-16T15:33:31;21.80;99.90
29855;DHT22;16733;48.738;9.106;2022-10-16T15:35:59;21.80;99.90
29855;DHT22;16733;48.738;9.106;2022-10-16T15:38:26;21.80;99.90
29855;DHT22;16733;48.738;9.106;2022-10-16T15:40:52;21.80;99.90
29855;DHT22;16733;48.738;9.106;2022-10-16T15:43:21;21.70;99.90
29855;DHT22;16733;48.738;9.106;2022-10-16T15:49:09;21.60;99.90
29855;DHT22;16733;48.738;9.106;2022-10-16T15:51:38;21.60;99.90
29855;DHT22;16733;48.738;9.106;2022-10-16T15:57:28;21.50;99.90
29855;DHT22;16733;48.738;9.106;2022-10-16T15:59:54;21.50;99.90
29855;DHT22;16733;48.738;9.106;2022-10-16T16:05:42;21.30;99.90
29855;DHT22;16733;48.738;9.106;2022-10-16T16:08:08;21.30;99.90
29855;DHT22;16733;48.738;9.106;2022-10-16T16:14:12;21.20;99.90
29855;DHT22;16733;48.738;9.106;2022-10-16T16:16:38;21.10;99.90
29855;DHT22;16733;48.738;9.106;2022-10-16T16:19:07;21.00;99.90
29855;DHT22;16733;48.738;9.106;2022-10-16T16:21:34;21.00;99.90
29855;DHT22;16733;48.738;9.106;2022-10-16T16:23:59;20.90;99.90
29855;DHT22;16733;48.738;9.106;2022-10-16T16:26:28;20.90;99.90
29855;DHT22;16733;48.738;9.106;2022-10-16T16:28:57;20.80;99.90
29855;DHT22;16733;48.738;9.106;2022-10-16T16:34:45;20.70;99.90
29855;DHT22;16733;48.738;9.106;2022-10-16T16:40:33;20.50;99.90
29855;DHT22;16733;48.738;9.106;2022-10-16T16:42:58;20.50;99.90
29855;DHT22;16733;48.738;9.106;2022-10-16T16:45:24;20.40;99.90
29855;DHT22;16733;48.738;9.106;2022-10-16T16:47:50;20.30;99.90
29855;DHT22;16733;48.738;9.106;2022-10-16T16:53:38;20.20;99.90
29855;DHT22;16733;48.738;9.106;2022-10-16T16:56:04;20.10;99.90
29855;DHT22;16733;48.738;9.106;2022-10-16T17:01:52;19.90;99.90
29855;DHT22;16733;48.738;9.106;2022-10-16T17:04:18;19.80;99.90
29855;DHT22;16733;48.738;9.106;2022-10-16T17:06:44;19.70;99.90
29855;DHT22;16733;48.738;9.106;2022-10-16T17:12:32;19.60;99.90
29855;DHT22;16733;48.738;9.106;2022-10-16T17:14:58;19.50;99.90
29855;DHT22;16733;48.738;9.106;2022-10-16T17:20:46;19.40;99.90
29855;DHT22;16733;48.738;9.106;2022-10-16T17:23:13;19.30;99.90
29855;DHT22;16733;48.738;9.106;2022-10-16T17:29:01;19.20;99.90
29855;DHT22;16733;48.738;9.106;2022-10-16T17:31:29;19.00;99.90
29855;DHT22;16733;48.738;9.106;2022-10-16T17:37:16;19.00;99.90
29855;DHT22;16733;48.738;9.106;2022-10-16T17:39:42;18.90;99.90
29855;DHT22;16733;48.738;9.106;2022-10-16T17:45:30;18.80;99.90
29855;DHT22;16733;48.738;9.106;2022-10-16T17:47:57;18.70;99.90
29855;DHT22;16733;48.738;9.106;2022-10-16T17:50:23;18.70;99.90
29855;DHT22;16733;48.738;9.106;2022-10-16T17:56:13;18.60;99.90
29855;DHT22;16733;48.738;9.106;2022-10-16T17:58:39;18.50;99.90
29855;DHT22;16733;48.738;9.106;2022-10-16T18:03:38;18.40;99.90
29855;DHT22;16733;48.738;9.106;2022-10-16T18:06:03;18.40;99.90
29855;DHT22;16733;48.738;9.106;2022-10-16T18:08:29;18.40;99.90
29855;DHT22;16733;48.738;9.106;2022-10-16T18:10:55;18.40;99.90
29855;DHT22;16733;48.738;9.106;2022-10-16T18:13:21;18.30;99.90
29855;DHT22;16733;48.738;9.106;2022-10-16T18:15:46;18.30;99.90
29855;DHT22;16733;48.738;9.106;2022-10-16T18:18:12;18.30;99.90
29855;DHT22;16733;48.738;9.106;2022-10-16T18:24:00;18.20;99.90
29855;DHT22;16733;48.738;9.106;2022-10-16T18:26:26;18.20;99.90
29855;DHT22;16733;48.738;9.106;2022-10-16T18:28:54;18.20;99.90
29855;DHT22;16733;48.738;9.106;2022-10-16T18:34:42;18.30;99.90
29855;DHT22;16733;48.738;9.106;2022-10-16T18:37:08;18.30;99.90
29855;DHT22;16733;48.738;9.106;2022-10-16T18:39:36;18.30;99.90
29855;DHT22;16733;48.738;9.106;2022-10-16T18:42:02;18.20;99.90
29855;DHT22;16733;48.738;9.106;2022-10-16T18:44:27;18.20;99.90
29855;DHT22;16733;48.738;9.106;2022-10-16T18:46:55;18.20;99.90
29855;DHT22;16733;48.738;9.106;2022-10-16T18:49:23;18.10;99.90
29855;DHT22;16733;48.738;9.106;2022-10-16T18:51:50;18.10;99.90
29855;DHT22;16733;48.738;9.106;2022-10-16T18:57:42;18.00;99.90
29855;DHT22;16733;48.738;9.106;2022-10-16T19:00:08;18.00;99.90
29855;DHT22;16733;48.738;9.106;2022-10-16T19:06:02;17.90;99.90
29855;DHT22;16733;48.738;9.106;2022-10-16T19:08:29;17.90;99.90
29855;DHT22;16733;48.738;9.106;2022-10-16T19:14:18;17.80;99.90
29855;DHT22;16733;48.738;9.106;2022-10-16T19:16:45;17.80;99.90
29855;DHT22;16733;48.738;9.106;2022-10-16T19:22:33;17.80;99.90
29855;DHT22;16733;48.738;9.106;2022-10-16T19:25:18;17.80;99.90
29855;DHT22;16733;48.738;9.106;2022-10-16T19:27:58;17.80;99.90
29855;DHT22;16733;48.738;9.106;2022-10-16T19:30:24;17.70;99.90
29855;DHT22;16733;48.738;9.106;2022-10-16T19:32:49;17.70;99.90
29855;DHT22;16733;48.738;9.106;2022-10-16T19:38:39;17.70;99.90
29855;DHT22;16733;48.738;9.106;2022-10-16T19:41:10;17.70;99.90
29855;DHT22;16733;48.738;9.106;2022-10-16T19:43:36;17.70;99.90
29855;DHT22;16733;48.738;9.106;2022-10-16T19:46:05;17.60;99.90
29855;DHT22;16733;48.738;9.106;2022-10-16T19:51:53;17.60;99.90
29855;DHT22;16733;48.738;9.106;2022-10-16T19:54:20;17.60;99.90
29855;DHT22;16733;48.738;9.106;2022-10-16T20:00:08;17.60;99.90
29855;DHT22;16733;48.738;9.106;2022-10-16T20:02:35;17.60;99.90
29855;DHT22;16733;48.738;9.106;2022-10-16T20:08:23;17.50;99.90
29855;DHT22;16733;48.738;9.106;2022-10-16T20:10:50;17.50;99.90
29855;DHT22;16733;48.738;9.106;2022-10-16T20:16:38;17.40;99.90
29855;DHT22;16733;48.738;9.106;2022-10-16T20:19:04;17.40;99.90
29855;DHT22;16733;48.738;9.106;2022-10-16T20:21:33;17.40;99.90
29855;DHT22;16733;48.738;9.106;2022-10-16T20:27:20;17.40;99.90
29855;DHT22;16733;48.738;9.106;2022-10-16T20:29:46;17.40;99.90
29855;DHT22;16733;48.738;9.106;2022-10-16T20:35:38;17.40;99.90
29855;DHT22;16733;48.738;9.106;2022-10-16T20:38:05;17.40;99.90
29855;DHT22;16733;48.738;9.106;2022-10-16T20:40:36;17.40;99.90
29855;DHT22;16733;48.738;9.106;2022-10-16T20:43:02;17.50;99.90
29855;DHT22;16733;48.738;9.106;2022-10-16T20:45:28;17.50;99.90
29855;DHT22;16733;48.738;9.106;2022-10-16T20:47:54;17.50;99.90
29855;DHT22;16733;48.738;9.106;2022-10-16T20:50:19;17.50;99.90
29855;DHT22;16733;48.738;9.106;2022-10-16T20:52:45;17.50;99.90
29855;DHT22;16733;48.738;9.106;2022-10-16T20:55:10;17.50;99.90
29855;DHT22;16733;48.738;9.106;2022-10-16T21:01:07;17.50;99.90
29855;DHT22;16733;48.738;9.106;2022-10-16T21:06:55;17.60;99.90
29855;DHT22;16733;48.738;9.106;2022-10-16T21:09:20;17.50;99.90
29855;DHT22;16733;48.738;9.106;2022-10-16T21:11:46;17.50;99.90
29855;DHT22;16733;48.738;9.106;2022-10-16T21:27:21;17.40;99.90
29855;DHT22;16733;48.738;9.106;2022-10-16T21:29:47;17.30;99.90
29855;DHT22;16733;48.738;9.106;2022-10-16T21:32:12;17.30;99.90
29855;DHT22;16733;48.738;9.106;2022-10-16T21:34:38;17.30;99.90
29855;DHT22;16733;48.738;9.106;2022-10-16T21:37:03;17.30;99.90
29855;DHT22;16733;48.738;9.106;2022-10-16T21:39:29;17.20;99.90
29855;DHT22;16733;48.738;9.106;2022-10-16T21:41:54;17.20;99.90
29855;DHT22;16733;48.738;9.106;2022-10-16T21:44:20;17.20;99.90
29855;DHT22;16733;48.738;9.106;2022-10-16T21:46:46;17.10;99.90
29855;DHT22;16733;48.738;9.106;2022-10-16T21:49:14;17.10;99.90
29855;DHT22;16733;48.738;9.106;2022-10-16T21:51:46;17.00;99.90
29855;DHT22;16733;48.738;9.106;2022-10-16T21:57:34;16.80;99.90
29855;DHT22;16733;48.738;9.106;2022-10-16T22:00:00;16.70;99.90
29855;DHT22;16733;48.738;9.106;2022-10-16T22:02:26;16.60;99.90
29855;DHT22;16733;48.738;9.106;2022-10-16T22:04:52;16.50;99.90
29855;DHT22;16733;48.738;9.106;2022-10-16T22:07:17;16.50;99.90
29855;DHT22;16733;48.738;9.106;2022-10-16T22:09:43;16.30;99.90
29855;DHT22;16733;48.738;9.106;2022-10-16T22:12:08;16.30;99.90
29855;DHT22;16733;48.738;9.106;2022-10-16T22:14:34;16.20;99.90
29855;DHT22;16733;48.738;9.106;2022-10-16T22:17:00;16.20;99.90
29855;DHT22;16733;48.738;9.106;2022-10-16T22:22:48;16.10;99.90
29855;DHT22;16733;48.738;9.106;2022-10-16T22:28:37;16.00;99.90
29855;DHT22;16733;48.738;9.106;2022-10-16T22:31:05;16.00;99.90
29855;DHT22;16733;48.738;9.106;2022-10-16T22:36:53;15.90;99.90
29855;DHT22;16733;48.738;9.106;2022-10-16T22:39:18;15.90;99.90
29855;DHT22;16733;48.738;9.106;2022-10-16T22:45:06;15.90;99.90
29855;DHT22;16733;48.738;9.106;2022-10-16T22:47:32;15.90;99.90
29855;DHT22;16733;48.738;9.106;2022-10-16T22:49:57;15.90;99.90
29855;DHT22;16733;48.738;9.106;2022-10-16T22:55:45;15.80;99.90
29855;DHT22;16733;48.738;9.106;2022-10-16T22:58:11;15.80;99.90
29855;DHT22;16733;48.738;9.106;2022-10-16T23:00:36;15.80;99.90
29855;DHT22;16733;48.738;9.106;2022-10-16T23:03:02;15.70;99.90
29855;DHT22;16733;48.738;9.106;2022-10-16T23:05:27;15.70;99.90
29855;DHT22;16733;48.738;9.106;2022-10-16T23:07:53;15.70;99.90
29855;DHT22;16733;48.738;9.106;2022-10-16T23:17:03;15.70;99.90
29855;DHT22;16733;48.738;9.106;2022-10-16T23:19:28;15.70;99.90
29855;DHT22;16733;48.738;9.106;2022-10-16T23:21:54;15.60;99.90
29855;DHT22;16733;48.738;9.106;2022-10-16T23:24:19;15.60;99.90
29855;DHT22;16733;48.738;9.106;2022-10-16T23:40:13;15.40;99.90
29855;DHT22;16733;48.738;9.106;2022-10-16T23:46:01;15.40;99.90
29855;DHT22;16733;48.738;9.106;2022-10-16T23:48:27;15.40;99.90
29855;DHT22;16733;48.738;9.106;2022-10-16T23:50:53;15.40;99.90